Time;durP1;ratioP1;P1;durP2;ratioP2;P2;SDS_P1;SDS_P2;PMS_P1;PMS_P2;Temp;Humidity;BMP_temperature;BMP_pressure;BME280_temperature;BME280_humidity;BME280_pressure;Samples;Min_cycle;Max_cycle;Signal;HPM_P1;HPM_P2
2022/01/17 00:01:33;;;;;;;18.90;3.90;;;6.40;99.90;;;;;;5049798;28;20032;-89
2022/01/17 00:03:59;;;;;;;16.63;3.05;;;6.30;99.90;;;;;;5062856;28;20048;-89
2022/01/17 00:06:25;;;;;;;13.32;2.40;;;6.30;99.90;;;;;;5057376;28;20042;-89
2022/01/17 00:08:51;;;;;;;9.88;2.15;;;6.30;99.90;;;;;;5061658;28;20118;-89
2022/01/17 00:11:18;;;;;;;15.05;2.22;;;6.30;99.90;;;;;;5070777;28;20109;-89
2022/01/17 00:13:46;;;;;;;13.00;2.65;;;6.30;99.90;;;;;;5048568;28;20402;-89
2022/01/17 00:19:06;;;;;;;13.65;2.38;;;6.20;99.90;;;;;;5063484;28;20136;-89
2022/01/17 00:21:27;;;;;;;18.55;2.45;;;6.20;99.90;;;;;;5061641;28;20047;-89
2022/01/17 00:23:53;;;;;;;17.23;3.05;;;6.20;99.90;;;;;;5048241;28;20028;-90
2022/01/17 00:26:18;;;;;;;19.67;2.80;;;6.20;99.90;;;;;;5046180;28;20033;-89
2022/01/17 00:28:44;;;;;;;20.88;2.30;;;6.10;99.90;;;;;;5059635;28;20032;-89
2022/01/17 00:31:10;;;;;;;13.43;2.15;;;6.10;99.90;;;;;;5047439;28;20040;-89
2022/01/17 00:33:35;;;;;;;12.23;2.38;;;6.00;99.90;;;;;;5048434;28;20036;-89
2022/01/17 00:36:02;;;;;;;12.48;1.98;;;6.00;99.90;;;;;;5042418;28;20552;-89
2022/01/17 00:38:28;;;;;;;11.52;1.77;;;6.10;99.90;;;;;;5047841;28;20048;-89
2022/01/17 00:40:53;;;;;;;15.43;3.17;;;6.00;99.90;;;;;;5041356;28;20050;-89
2022/01/17 00:43:22;;;;;;;13.27;2.95;;;5.90;99.90;;;;;;5059330;28;20490;-89
2022/01/17 00:45:48;;;;;;;15.13;2.78;;;6.00;99.90;;;;;;5040726;28;20559;-88
2022/01/17 00:48:13;;;;;;;17.48;1.90;;;6.00;99.90;;;;;;5043153;28;20041;-89
2022/01/17 00:50:40;;;;;;;17.33;2.00;;;6.00;99.90;;;;;;5045435;28;20387;-89
2022/01/17 00:53:07;;;;;;;12.13;2.13;;;6.00;99.90;;;;;;5057893;28;20036;-89
2022/01/17 00:55:34;;;;;;;13.57;1.83;;;6.00;99.90;;;;;;5043373;28;20121;-89
2022/01/17 00:58:00;;;;;;;8.43;2.00;;;6.00;99.90;;;;;;5046304;28;20037;-89
2022/01/17 01:00:26;;;;;;;12.55;2.67;;;6.00;99.90;;;;;;5048087;28;20032;-90
2022/01/17 01:02:52;;;;;;;19.90;2.15;;;6.00;99.90;;;;;;5048505;28;20103;-89
2022/01/17 01:05:18;;;;;;;15.90;2.45;;;6.00;99.90;;;;;;5045442;28;20065;-89
2022/01/17 01:07:45;;;;;;;20.05;2.33;;;6.00;99.90;;;;;;5045874;28;20063;-89
2022/01/17 01:10:12;;;;;;;16.90;3.17;;;6.00;99.90;;;;;;5045183;28;20041;-89
2022/01/17 01:12:49;;;;;;;20.88;4.30;;;6.00;99.90;;;;;;5060410;28;20044;-89
2022/01/17 01:15:32;;;;;;;13.95;2.53;;;6.00;99.90;;;;;;5063106;28;20514;-88
2022/01/17 01:18:00;;;;;;;15.38;2.15;;;6.10;99.90;;;;;;5078360;28;20543;-89
2022/01/17 01:21:32;;;;;;;16.83;2.58;;;6.00;99.90;;;;;;5046879;28;20044;-90
2022/01/17 01:28:45;;;;;;;20.90;2.75;;;5.90;99.90;;;;;;5057987;28;20123;-89
2022/01/17 01:31:15;;;;;;;14.23;2.13;;;5.90;99.90;;;;;;5058850;28;20128;-88
2022/01/17 01:33:49;;;;;;;20.40;2.33;;;6.00;99.90;;;;;;5072334;28;20043;-90
2022/01/17 01:36:20;;;;;;;17.75;2.83;;;5.90;99.90;;;;;;5062987;28;20493;-90
2022/01/17 01:38:47;;;;;;;14.82;2.47;;;5.90;99.90;;;;;;5042751;28;20040;-90
2022/01/17 01:41:12;;;;;;;14.18;2.35;;;5.90;99.90;;;;;;5045787;28;20055;-88
2022/01/17 01:43:38;;;;;;;14.05;2.08;;;5.90;99.90;;;;;;5051991;28;20036;-90
2022/01/17 01:46:05;;;;;;;15.32;2.30;;;5.90;99.90;;;;;;5044229;28;20036;-90
2022/01/17 01:48:35;;;;;;;17.88;2.30;;;5.90;99.90;;;;;;5058925;28;20428;-90
2022/01/17 01:51:01;;;;;;;18.15;2.55;;;5.90;99.90;;;;;;5060929;28;20103;-89
2022/01/17 01:53:27;;;;;;;10.65;1.88;;;5.90;99.90;;;;;;5042453;28;20131;-90
2022/01/17 01:55:56;;;;;;;18.02;2.47;;;5.90;99.90;;;;;;5039139;28;20501;-89
2022/01/17 01:58:24;;;;;;;20.25;2.80;;;5.80;99.90;;;;;;5044414;28;20494;-90
2022/01/17 02:00:50;;;;;;;17.90;2.25;;;5.80;99.90;;;;;;5094278;28;20193;-90
2022/01/17 02:03:16;;;;;;;17.92;3.00;;;5.80;99.90;;;;;;5043887;28;20032;-89
2022/01/17 02:05:43;;;;;;;28.85;4.20;;;5.80;99.90;;;;;;5040321;28;20037;-90
2022/01/17 02:08:10;;;;;;;14.20;2.10;;;5.80;99.90;;;;;;5061034;28;20059;-89
2022/01/17 02:10:35;;;;;;;14.35;2.85;;;5.80;99.90;;;;;;5070565;28;20036;-89
2022/01/17 02:13:01;;;;;;;16.40;2.30;;;5.80;99.90;;;;;;5061653;28;20051;-89
2022/01/17 02:15:27;;;;;;;22.75;3.10;;;5.80;99.90;;;;;;5043988;28;20036;-89
2022/01/17 02:17:55;;;;;;;13.38;2.53;;;5.70;99.90;;;;;;5059844;28;20067;-89
2022/01/17 02:20:29;;;;;;;20.05;3.53;;;5.70;99.90;;;;;;5055999;28;20045;-90
2022/01/17 02:22:54;;;;;;;17.08;2.50;;;5.70;99.90;;;;;;5043912;28;20039;-90
2022/01/17 02:25:20;;;;;;;15.88;2.30;;;5.60;99.90;;;;;;5080888;28;20041;-90
2022/01/17 02:27:47;;;;;;;22.17;2.33;;;5.60;99.90;;;;;;5056567;28;20112;-89
2022/01/17 02:30:17;;;;;;;19.35;2.38;;;5.60;99.90;;;;;;5064164;28;20043;-90
2022/01/17 02:32:42;;;;;;;13.90;2.10;;;5.60;99.90;;;;;;5061695;28;20354;-91
2022/01/17 02:35:14;;;;;;;17.05;2.30;;;5.50;99.90;;;;;;5066714;28;20619;-89
2022/01/17 02:37:39;;;;;;;12.85;2.08;;;5.50;99.90;;;;;;5067061;28;20410;-90
2022/01/17 02:40:06;;;;;;;17.27;3.13;;;5.50;99.90;;;;;;5045940;28;20028;-89
2022/01/17 02:42:33;;;;;;;14.07;2.33;;;5.50;99.90;;;;;;5048082;28;20039;-89
2022/01/17 02:45:08;;;;;;;15.02;2.40;;;5.40;99.90;;;;;;5067601;28;20433;-90
2022/01/17 02:47:34;;;;;;;23.58;3.10;;;5.50;99.90;;;;;;5046625;28;20037;-90
2022/01/17 02:49:59;;;;;;;23.10;2.70;;;5.50;99.90;;;;;;5048624;28;20055;-89
2022/01/17 02:52:25;;;;;;;19.83;3.35;;;5.40;99.90;;;;;;5049133;28;20036;-90
2022/01/17 02:54:51;;;;;;;20.75;3.22;;;5.40;99.90;;;;;;5064779;28;20076;-90
2022/01/17 02:57:16;;;;;;;17.40;2.95;;;5.40;99.90;;;;;;5041796;28;20041;-90
2022/01/17 02:59:42;;;;;;;17.08;3.05;;;5.40;99.90;;;;;;5046014;28;20032;-90
2022/01/17 03:02:07;;;;;;;14.00;1.98;;;5.40;99.90;;;;;;5082692;28;20555;-89
2022/01/17 03:04:33;;;;;;;16.65;2.30;;;5.40;99.90;;;;;;5060037;28;20029;-89
2022/01/17 03:06:59;;;;;;;17.25;2.35;;;5.40;99.90;;;;;;5046413;28;20558;-90
2022/01/17 03:09:29;;;;;;;16.17;1.77;;;5.40;99.90;;;;;;5045992;28;20086;-89
2022/01/17 03:11:55;;;;;;;12.68;2.08;;;5.40;99.90;;;;;;5042683;28;20044;-88
2022/01/17 03:14:20;;;;;;;15.93;2.20;;;5.30;99.90;;;;;;5064353;28;20101;-89
2022/01/17 03:16:48;;;;;;;21.35;3.03;;;5.40;99.90;;;;;;5072942;28;20048;-90
2022/01/17 03:19:15;;;;;;;11.82;2.33;;;5.30;99.90;;;;;;5050022;28;20110;-89
2022/01/17 03:21:40;;;;;;;14.00;2.00;;;5.30;99.90;;;;;;5052034;28;20039;-89
2022/01/17 03:24:07;;;;;;;15.88;2.28;;;5.30;99.90;;;;;;5064875;28;20450;-90
2022/01/17 03:26:33;;;;;;;17.50;2.47;;;5.40;99.90;;;;;;5051427;28;20043;-90
2022/01/17 03:29:02;;;;;;;29.38;5.15;;;5.40;99.90;;;;;;5050342;28;20033;-90
2022/01/17 03:31:27;;;;;;;13.60;1.98;;;5.40;99.90;;;;;;5051352;28;20048;-89
2022/01/17 03:33:53;;;;;;;19.60;2.90;;;5.40;99.90;;;;;;5066380;28;20043;-90
2022/01/17 03:36:19;;;;;;;12.13;1.80;;;5.40;99.90;;;;;;5048659;28;20047;-89
2022/01/17 03:38:45;;;;;;;11.02;2.00;;;5.50;99.90;;;;;;5067286;28;20036;-89
2022/01/17 03:41:14;;;;;;;11.77;2.30;;;5.50;99.90;;;;;;5054201;28;20390;-88
2022/01/17 03:43:40;;;;;;;14.25;2.97;;;5.50;99.90;;;;;;5082591;28;20046;-88
2022/01/17 03:46:05;;;;;;;12.05;3.00;;;5.50;99.90;;;;;;5054059;28;20450;-89
2022/01/17 03:48:33;;;;;;;11.80;1.85;;;5.50;99.90;;;;;;5047072;28;20044;-90
2022/01/17 03:51:00;;;;;;;14.88;2.47;;;5.50;99.90;;;;;;5066245;28;20040;-89
2022/01/17 03:53:27;;;;;;;14.65;1.77;;;5.50;99.90;;;;;;5067210;28;20608;-90
2022/01/17 03:55:53;;;;;;;15.82;2.33;;;5.60;99.90;;;;;;5049412;28;20036;-90
2022/01/17 03:58:21;;;;;;;18.88;3.40;;;5.60;99.90;;;;;;5048990;28;20577;-89
2022/01/17 04:00:48;;;;;;;20.02;3.13;;;5.60;99.90;;;;;;5050349;28;20044;-88
2022/01/17 04:03:14;;;;;;;16.35;2.50;;;5.60;99.90;;;;;;5066226;28;20028;-91
2022/01/17 04:05:40;;;;;;;14.55;3.13;;;5.70;99.90;;;;;;5048380;28;20039;-89
2022/01/17 04:08:06;;;;;;;16.35;2.50;;;5.70;99.90;;;;;;5048960;28;20828;-89
2022/01/17 04:10:33;;;;;;;22.27;3.05;;;5.70;99.90;;;;;;5100396;28;22084;-90
2022/01/17 04:13:03;;;;;;;12.07;1.90;;;5.70;99.90;;;;;;5049388;28;20044;-88
2022/01/17 04:15:30;;;;;;;13.45;2.03;;;5.70;99.90;;;;;;5050135;28;20041;-89
2022/01/17 04:17:56;;;;;;;11.55;2.30;;;5.70;99.90;;;;;;5046444;28;20060;-90
2022/01/17 04:20:27;;;;;;;12.75;2.33;;;5.70;99.90;;;;;;5047839;28;20048;-90
2022/01/17 04:22:58;;;;;;;13.90;2.00;;;5.70;99.90;;;;;;5045834;28;20090;-90
2022/01/17 04:25:29;;;;;;;14.52;2.10;;;5.70;99.90;;;;;;5048224;28;20032;-89
2022/01/17 04:27:56;;;;;;;16.50;3.03;;;5.70;99.90;;;;;;5050071;28;20033;-91
2022/01/17 04:30:22;;;;;;;19.83;2.00;;;5.70;99.90;;;;;;5049013;28;20041;-91
2022/01/17 04:32:48;;;;;;;12.98;2.35;;;5.60;99.90;;;;;;5048062;28;20044;-91
2022/01/17 04:35:20;;;;;;;17.63;2.65;;;5.70;99.90;;;;;;5066248;28;20043;-91
2022/01/17 04:37:48;;;;;;;13.05;2.10;;;5.70;99.90;;;;;;5066512;28;20067;-90
2022/01/17 04:40:13;;;;;;;13.60;2.60;;;5.70;99.90;;;;;;5046603;28;20036;-90
2022/01/17 04:42:44;;;;;;;11.57;2.00;;;5.70;99.90;;;;;;5050282;28;20032;-90
2022/01/17 04:45:13;;;;;;;16.33;2.28;;;5.70;99.90;;;;;;5050108;28;20098;-90
2022/01/17 04:47:41;;;;;;;17.23;1.83;;;5.60;99.90;;;;;;5049886;28;20107;-90
2022/01/17 04:50:27;;;;;;;14.13;2.45;;;5.70;99.90;;;;;;5063158;28;20040;-89
2022/01/17 04:52:55;;;;;;;13.82;1.88;;;5.60;99.90;;;;;;5065062;28;20539;-89
2022/01/17 04:55:22;;;;;;;11.73;1.70;;;5.60;99.90;;;;;;5095124;28;20048;-90
2022/01/17 04:57:48;;;;;;;16.25;2.40;;;5.70;99.90;;;;;;5045761;28;20037;-90
2022/01/17 05:00:19;;;;;;;22.02;2.60;;;5.70;99.90;;;;;;5066408;28;20371;-91
2022/01/17 05:02:45;;;;;;;16.77;2.20;;;5.70;99.90;;;;;;5065800;28;20060;-90
2022/01/17 05:05:12;;;;;;;10.32;2.00;;;5.70;99.90;;;;;;5045455;28;20075;-89
2022/01/17 05:07:38;;;;;;;10.57;1.60;;;5.80;99.90;;;;;;5049057;28;20032;-90
2022/01/17 05:10:07;;;;;;;18.13;2.20;;;5.80;99.90;;;;;;5049630;28;20394;-90
2022/01/17 05:12:33;;;;;;;15.45;1.80;;;5.80;99.90;;;;;;5065635;28;20041;-89
2022/01/17 05:14:59;;;;;;;16.58;2.83;;;5.80;99.90;;;;;;5081313;28;20032;-90
2022/01/17 05:19:58;;;;;;;18.00;2.65;;;5.80;99.90;;;;;;5065228;28;20413;-89
2022/01/17 05:22:27;;;;;;;19.88;2.35;;;5.90;99.90;;;;;;5081250;28;20029;-87
2022/01/17 05:24:53;;;;;;;16.65;2.38;;;5.90;99.90;;;;;;5049207;28;20043;-88
2022/01/17 05:27:18;;;;;;;17.98;2.00;;;5.90;99.90;;;;;;5050240;28;20032;-90
2022/01/17 05:29:46;;;;;;;15.23;2.75;;;6.00;99.90;;;;;;5048788;28;20032;-90
2022/01/17 05:32:12;;;;;;;16.40;2.45;;;6.00;99.90;;;;;;5064893;28;20044;-90
2022/01/17 05:34:40;;;;;;;15.98;2.85;;;6.00;99.90;;;;;;5063366;28;20189;-90
2022/01/17 05:37:11;;;;;;;14.63;2.85;;;6.00;99.90;;;;;;5047260;28;20037;-89
2022/01/17 05:39:37;;;;;;;18.92;2.50;;;6.10;99.90;;;;;;5050790;28;20029;-90
2022/01/17 05:42:04;;;;;;;21.35;2.80;;;6.10;99.90;;;;;;5065921;28;20043;-91
2022/01/17 05:44:30;;;;;;;15.88;2.75;;;6.10;99.90;;;;;;5063054;28;20382;-90
2022/01/17 05:46:56;;;;;;;17.08;3.47;;;6.10;99.90;;;;;;5062727;28;20490;-89
2022/01/17 05:49:27;;;;;;;18.70;3.05;;;6.10;99.90;;;;;;5066801;28;20119;-90
2022/01/17 05:51:52;;;;;;;18.13;3.10;;;6.10;99.90;;;;;;5067784;28;20106;-90
2022/01/17 05:54:18;;;;;;;19.13;3.42;;;6.20;99.90;;;;;;5048209;28;20028;-90
2022/01/17 05:56:44;;;;;;;14.00;3.00;;;6.10;99.90;;;;;;5047093;28;20486;-91
2022/01/17 05:59:10;;;;;;;19.08;3.10;;;6.10;99.90;;;;;;5047026;28;20052;-90
2022/01/17 06:01:42;;;;;;;15.95;4.05;;;6.10;99.90;;;;;;5063305;28;20439;-90
2022/01/17 06:04:11;;;;;;;19.63;2.92;;;6.20;99.90;;;;;;5044750;28;20040;-90
2022/01/17 06:06:36;;;;;;;13.60;2.67;;;6.20;99.90;;;;;;5069611;28;20380;-91
2022/01/17 06:09:03;;;;;;;26.13;3.47;;;6.20;99.90;;;;;;5069725;28;20033;-90
2022/01/17 06:11:28;;;;;;;21.77;4.32;;;6.20;99.90;;;;;;5065928;28;20036;-89
2022/01/17 06:13:54;;;;;;;21.70;3.40;;;6.20;99.90;;;;;;5082336;28;20059;-89
2022/01/17 06:16:20;;;;;;;15.23;3.17;;;6.20;99.90;;;;;;5067571;28;20417;-90
2022/01/17 06:18:45;;;;;;;16.95;3.38;;;6.30;99.90;;;;;;5074780;28;20049;-90
2022/01/17 06:21:11;;;;;;;22.30;4.05;;;6.30;99.90;;;;;;5052447;28;20037;-90
2022/01/17 06:23:37;;;;;;;22.75;3.78;;;6.40;99.90;;;;;;5052681;28;20090;-91
2022/01/17 06:26:02;;;;;;;18.65;3.22;;;6.30;99.90;;;;;;5045996;28;20029;-90
2022/01/17 06:28:28;;;;;;;20.83;3.85;;;6.30;99.90;;;;;;5050728;28;20047;-89
2022/01/17 06:30:53;;;;;;;18.15;4.00;;;6.30;99.90;;;;;;5068252;28;20044;-91
2022/01/17 06:33:19;;;;;;;33.83;5.13;;;6.30;99.90;;;;;;5052375;28;20097;-90
2022/01/17 06:35:45;;;;;;;28.20;4.80;;;6.30;99.90;;;;;;5048875;28;20070;-90
2022/01/17 06:38:10;;;;;;;27.33;5.13;;;6.40;99.90;;;;;;5068599;28;20059;-92
2022/01/17 06:40:36;;;;;;;24.10;5.13;;;6.40;99.90;;;;;;5049009;28;20558;-91
2022/01/17 06:43:04;;;;;;;16.83;3.58;;;6.40;99.90;;;;;;5066957;28;20039;-92
2022/01/17 06:45:33;;;;;;;26.23;4.50;;;6.40;99.90;;;;;;5049037;28;20047;-91
2022/01/17 06:48:00;;;;;;;24.42;4.20;;;6.30;99.90;;;;;;5049273;28;20029;-91
2022/01/17 06:50:25;;;;;;;24.42;3.88;;;6.40;99.90;;;;;;5070544;28;20102;-90
2022/01/17 06:52:51;;;;;;;23.25;5.00;;;6.40;99.90;;;;;;5065367;28;20468;-91
2022/01/17 06:55:17;;;;;;;15.70;4.03;;;6.40;99.90;;;;;;5067034;28;20037;-93
2022/01/17 06:57:43;;;;;;;24.52;4.35;;;6.40;99.90;;;;;;5047598;28;20187;-92
2022/01/17 07:00:11;;;;;;;20.02;4.65;;;6.40;99.90;;;;;;5050391;28;20072;-90
2022/01/17 07:02:37;;;;;;;24.08;5.00;;;6.40;99.90;;;;;;5066294;28;20029;-90
2022/01/17 07:05:03;;;;;;;16.65;4.53;;;6.40;99.90;;;;;;5066946;28;20087;-90
2022/01/17 07:07:31;;;;;;;21.67;5.55;;;6.40;99.90;;;;;;5051538;28;20482;-91
2022/01/17 07:10:00;;;;;;;24.85;5.10;;;6.30;99.90;;;;;;5051769;28;20113;-92
2022/01/17 07:12:28;;;;;;;21.42;5.28;;;6.30;99.90;;;;;;5052802;28;20058;-91
2022/01/17 07:14:53;;;;;;;31.45;5.72;;;6.40;99.90;;;;;;5063840;28;20170;-91
2022/01/17 07:17:19;;;;;;;35.05;5.45;;;6.30;99.90;;;;;;5047647;28;20534;-92
2022/01/17 07:19:46;;;;;;;24.05;5.28;;;6.30;99.90;;;;;;5066940;28;20045;-92
2022/01/17 07:22:15;;;;;;;24.98;4.90;;;6.30;99.90;;;;;;5049507;28;20127;-92
2022/01/17 07:24:42;;;;;;;30.00;5.30;;;6.40;99.90;;;;;;5049579;28;20040;-90
2022/01/17 07:27:08;;;;;;;26.48;4.78;;;6.30;99.90;;;;;;5082236;28;20076;-92
2022/01/17 07:29:38;;;;;;;25.48;4.82;;;6.40;99.90;;;;;;5066988;28;20074;-91
2022/01/17 07:32:04;;;;;;;30.65;5.57;;;6.30;99.90;;;;;;5082364;28;20509;-92
2022/01/17 07:34:30;;;;;;;28.38;5.25;;;6.30;99.90;;;;;;5068805;28;20041;-90
2022/01/17 07:36:56;;;;;;;26.38;5.30;;;6.30;99.90;;;;;;5049398;28;20033;-90
2022/01/17 07:39:21;;;;;;;27.63;5.43;;;6.30;99.90;;;;;;5047294;28;20090;-91
2022/01/17 07:41:47;;;;;;;33.10;7.15;;;6.40;99.90;;;;;;5068143;28;20033;-88
2022/01/17 07:44:19;;;;;;;26.75;5.82;;;6.40;99.90;;;;;;5045154;28;20056;-88
2022/01/17 07:46:50;;;;;;;33.05;5.75;;;6.40;99.90;;;;;;5045143;28;20033;-89
2022/01/17 07:49:19;;;;;;;25.15;4.85;;;6.40;99.90;;;;;;5061194;28;20562;-87
2022/01/17 07:51:47;;;;;;;31.40;5.10;;;6.40;99.90;;;;;;5081085;28;20076;-88
2022/01/17 07:54:18;;;;;;;26.55;5.20;;;6.40;99.90;;;;;;5064866;28;20119;-87
2022/01/17 07:56:47;;;;;;;26.13;4.90;;;6.40;99.90;;;;;;5054569;28;20040;-89
2022/01/17 07:59:13;;;;;;;26.75;6.07;;;6.50;99.90;;;;;;5046816;28;20468;-88
2022/01/17 08:01:39;;;;;;;33.45;4.60;;;6.50;99.90;;;;;;5069812;28;20123;-90
2022/01/17 08:04:06;;;;;;;34.58;5.22;;;6.60;99.90;;;;;;5069790;28;20051;-88
2022/01/17 08:06:38;;;;;;;27.35;4.28;;;6.50;99.90;;;;;;5048737;28;20039;-89
2022/01/17 08:09:09;;;;;;;39.20;6.25;;;6.50;99.90;;;;;;5066766;28;20147;-87
2022/01/17 08:11:35;;;;;;;37.17;5.88;;;6.50;99.90;;;;;;5043949;28;20037;-91
2022/01/17 08:14:01;;;;;;;26.27;4.50;;;6.50;99.90;;;;;;5078542;28;20039;-90
2022/01/17 08:16:27;;;;;;;31.85;5.00;;;6.60;99.90;;;;;;5052764;28;20047;-90
2022/01/17 08:18:52;;;;;;;30.67;5.03;;;6.50;99.90;;;;;;5039645;28;20437;-93
2022/01/17 08:21:19;;;;;;;29.40;5.53;;;6.60;99.90;;;;;;5045832;28;20082;-91
2022/01/17 08:23:46;;;;;;;33.25;4.88;;;6.60;99.90;;;;;;5072697;28;20180;-91
2022/01/17 08:26:12;;;;;;;26.80;4.10;;;6.60;99.90;;;;;;5068386;28;20951;-91
2022/01/17 08:28:38;;;;;;;31.77;4.78;;;6.60;99.90;;;;;;5050614;28;20029;-93
2022/01/17 08:31:04;;;;;;;32.83;4.53;;;6.60;99.90;;;;;;5049452;28;20569;-93
2022/01/17 08:33:29;;;;;;;21.77;5.57;;;6.60;99.90;;;;;;5051689;28;20132;-91
2022/01/17 08:35:55;;;;;;;39.45;4.55;;;6.60;99.90;;;;;;5048758;28;20047;-91
2022/01/17 08:38:21;;;;;;;32.47;4.25;;;6.60;99.90;;;;;;5049362;28;20517;-91
2022/01/17 08:40:49;;;;;;;32.63;4.60;;;6.70;99.90;;;;;;5050757;28;20052;-90
2022/01/17 08:43:15;;;;;;;25.55;4.45;;;6.60;99.90;;;;;;5065340;28;20036;-91
2022/01/17 08:45:40;;;;;;;36.55;5.18;;;6.70;99.90;;;;;;5046018;28;20105;-92
2022/01/17 08:48:06;;;;;;;29.35;5.15;;;6.70;99.90;;;;;;5095835;28;20517;-92
2022/01/17 08:50:32;;;;;;;24.42;4.43;;;6.70;99.90;;;;;;5048489;28;20058;-91
2022/01/17 08:53:01;;;;;;;30.13;4.43;;;6.70;99.90;;;;;;5057650;28;20053;-92
2022/01/17 08:55:27;;;;;;;35.97;5.28;;;6.70;99.90;;;;;;5047327;28;20039;-90
2022/01/17 08:57:52;;;;;;;32.63;4.32;;;6.70;99.90;;;;;;5048507;28;20494;-91
2022/01/17 09:00:20;;;;;;;31.50;6.70;;;6.70;99.90;;;;;;5066857;28;20377;-91
2022/01/17 09:06:51;;;;;;;33.17;4.72;;;6.80;99.90;;;;;;4976733;28;20113;-92
2022/01/17 09:09:17;;;;;;;31.30;4.53;;;6.80;99.90;;;;;;4966174;28;20042;-92
2022/01/17 09:11:43;;;;;;;30.67;4.72;;;6.80;99.90;;;;;;5039230;28;20059;-93
2022/01/17 09:14:09;;;;;;;23.00;4.38;;;6.80;99.90;;;;;;5044442;28;20024;-91
2022/01/17 09:16:38;;;;;;;32.95;4.93;;;6.80;99.90;;;;;;5047410;28;20488;-91
2022/01/17 09:19:08;;;;;;;30.90;4.78;;;6.90;99.90;;;;;;5044608;28;20053;-93
2022/01/17 09:21:34;;;;;;;38.38;4.57;;;6.90;99.90;;;;;;5046240;28;20033;-92
2022/01/17 09:24:00;;;;;;;34.22;4.88;;;6.90;99.90;;;;;;5049195;28;20033;-92
2022/01/17 09:26:26;;;;;;;32.28;5.85;;;7.00;99.90;;;;;;5047881;28;20040;-90
2022/01/17 09:28:52;;;;;;;26.20;4.55;;;7.00;99.90;;;;;;5044629;28;20059;-89
2022/01/17 09:31:22;;;;;;;26.20;3.63;;;7.00;99.90;;;;;;5063101;28;20051;-93
2022/01/17 09:33:51;;;;;;;33.05;4.82;;;7.00;99.90;;;;;;5046531;28;20044;-92
2022/01/17 09:36:17;;;;;;;28.73;4.80;;;7.10;99.90;;;;;;5047116;28;20075;-92
2022/01/17 09:38:42;;;;;;;39.28;4.80;;;7.10;99.90;;;;;;5050150;28;20509;-90
2022/01/17 09:41:09;;;;;;;44.10;7.88;;;7.10;99.90;;;;;;5067981;28;20041;-90
2022/01/17 09:43:36;;;;;;;36.40;5.28;;;7.20;99.90;;;;;;5043346;28;20039;-93
2022/01/17 09:46:04;;;;;;;34.30;4.53;;;7.30;99.90;;;;;;5063411;28;20029;-92
2022/01/17 09:48:38;;;;;;;34.28;4.63;;;7.30;99.90;;;;;;5054162;28;20482;-91
2022/01/17 09:51:17;;;;;;;22.88;4.05;;;7.40;99.90;;;;;;5063076;28;20048;-91
2022/01/17 09:53:43;;;;;;;35.58;4.45;;;7.40;99.90;;;;;;5047802;28;20569;-92
2022/01/17 09:56:09;;;;;;;33.10;5.05;;;7.50;99.90;;;;;;5063308;28;20383;-91
2022/01/17 09:58:37;;;;;;;27.42;4.35;;;7.50;99.90;;;;;;5082927;28;20120;-91
2022/01/17 10:01:04;;;;;;;30.77;4.50;;;7.60;99.90;;;;;;5097871;28;20037;-90
2022/01/17 10:03:32;;;;;;;36.00;6.93;;;7.70;99.90;;;;;;5053347;28;20127;-92
2022/01/17 10:05:57;;;;;;;46.75;6.43;;;7.70;99.90;;;;;;5100914;28;20037;-90
2022/01/17 10:08:23;;;;;;;24.30;4.43;;;7.80;99.90;;;;;;5051464;28;20029;-91
2022/01/17 10:11:04;;;;;;;31.88;4.03;;;7.90;99.90;;;;;;5070436;28;20067;-90
2022/01/17 10:13:37;;;;;;;41.13;5.78;;;7.90;99.90;;;;;;5064682;28;20049;-90
2022/01/17 10:16:14;;;;;;;32.40;5.07;;;7.90;99.90;;;;;;5050543;28;20144;-91
2022/01/17 10:18:51;;;;;;;33.60;4.80;;;8.10;99.90;;;;;;5050050;28;20052;-91
2022/01/17 10:21:28;;;;;;;36.15;6.15;;;8.10;99.90;;;;;;5065277;28;20051;-89
2022/01/17 10:29:28;;;;;;;35.53;5.20;;;8.30;99.90;;;;;;5091408;28;20078;-91
2022/01/17 10:34:54;;;;;;;31.92;5.18;;;8.30;99.90;;;;;;5063286;28;20051;-92
2022/01/17 10:37:25;;;;;;;34.55;5.22;;;8.40;99.90;;;;;;5097602;28;20036;-90
2022/01/17 10:40:04;;;;;;;42.80;7.15;;;8.40;99.90;;;;;;5049165;28;20063;-80
2022/01/17 10:42:35;;;;;;;37.22;5.53;;;8.40;99.90;;;;;;5065602;28;20344;-89
2022/01/17 10:45:13;;;;;;;38.28;4.90;;;8.50;99.90;;;;;;5064414;28;20040;-87
2022/01/17 10:47:49;;;;;;;42.95;5.60;;;8.50;99.90;;;;;;5063472;28;20032;-93
2022/01/17 10:50:21;;;;;;;37.33;5.93;;;8.50;99.90;;;;;;5045902;28;20261;-90
2022/01/17 10:52:56;;;;;;;35.17;5.45;;;8.50;99.90;;;;;;5079060;28;20059;-94
2022/01/17 10:55:25;;;;;;;47.95;6.47;;;8.60;99.90;;;;;;5046502;28;20043;-94
2022/01/17 10:58:24;;;;;;;47.17;7.70;;;8.60;99.90;;;;;;5049148;28;20131;-87
2022/01/17 11:01:06;;;;;;;34.60;6.63;;;8.60;99.90;;;;;;5046818;28;20059;-91
2022/01/17 11:03:33;;;;;;;37.08;6.45;;;8.70;99.90;;;;;;5070035;28;20509;-91
2022/01/17 11:06:10;;;;;;;40.97;5.60;;;8.70;99.90;;;;;;5065938;28;20098;-92
2022/01/17 11:08:39;;;;;;;44.65;6.25;;;8.70;99.90;;;;;;5065633;28;20060;-92
2022/01/17 11:11:07;;;;;;;37.65;7.22;;;8.70;99.90;;;;;;5083433;28;20127;-92
2022/01/17 11:13:34;;;;;;;33.78;5.47;;;8.60;99.90;;;;;;5043022;28;20106;-92
2022/01/17 11:16:04;;;;;;;32.13;6.25;;;8.70;99.90;;;;;;5045473;28;20429;-93
2022/01/17 11:18:31;;;;;;;44.45;5.90;;;8.70;99.90;;;;;;5053738;28;20077;-92
2022/01/17 11:21:06;;;;;;;36.08;6.43;;;8.70;99.90;;;;;;5066070;28;20053;-92
2022/01/17 11:23:32;;;;;;;33.53;6.18;;;8.70;99.90;;;;;;5044483;28;20029;-92
2022/01/17 11:25:58;;;;;;;41.30;5.47;;;8.70;99.90;;;;;;5065842;28;20075;-92
2022/01/17 11:28:26;;;;;;;45.58;6.43;;;8.70;99.90;;;;;;5049341;28;20079;-90
2022/01/17 11:30:55;;;;;;;33.95;5.30;;;8.70;99.90;;;;;;5049603;28;20040;-91
2022/01/17 11:33:22;;;;;;;40.13;5.50;;;8.80;99.90;;;;;;5053182;28;20090;-92
2022/01/17 11:35:52;;;;;;;34.88;5.90;;;8.80;99.90;;;;;;5062732;28;20091;-92
2022/01/17 11:38:28;;;;;;;37.22;6.25;;;8.80;99.90;;;;;;5081791;28;20037;-93
2022/01/17 11:40:55;;;;;;;38.85;7.07;;;8.90;99.90;;;;;;5047405;28;20397;-92
2022/01/17 11:43:32;;;;;;;41.78;7.85;;;8.90;99.90;;;;;;5080724;28;20094;-92
2022/01/17 11:46:00;;;;;;;42.40;6.07;;;8.90;99.90;;;;;;5097821;28;20037;-91
2022/01/17 11:48:31;;;;;;;38.08;6.03;;;9.00;99.90;;;;;;5065184;28;20036;-92
2022/01/17 11:51:09;;;;;;;34.92;5.78;;;8.90;99.90;;;;;;5046173;28;20040;-93
2022/01/17 11:53:41;;;;;;;41.08;6.20;;;8.90;99.90;;;;;;5059458;28;20042;-92
2022/01/17 11:56:07;;;;;;;45.88;7.75;;;9.00;99.90;;;;;;5071477;28;20040;-92
2022/01/17 11:58:39;;;;;;;49.85;7.65;;;9.00;99.90;;;;;;5063674;28;20049;-92
2022/01/17 12:01:05;;;;;;;42.35;6.90;;;9.00;99.90;;;;;;5065377;28;20036;-92
2022/01/17 12:03:50;;;;;;;39.75;6.05;;;9.00;99.90;;;;;;5061391;28;20071;-93
2022/01/17 12:06:24;;;;;;;36.55;6.50;;;9.10;99.90;;;;;;5040303;28;20037;-91
2022/01/17 12:09:23;;;;;;;32.78;5.63;;;9.10;99.90;;;;;;5050102;28;20531;-90
2022/01/17 12:12:10;;;;;;;36.22;5.57;;;9.10;99.90;;;;;;5047489;28;20028;-91
2022/01/17 12:14:44;;;;;;;30.73;4.55;;;9.10;99.90;;;;;;5044631;28;20079;-90
2022/01/17 12:17:25;;;;;;;30.85;5.53;;;9.10;99.90;;;;;;5048170;28;20066;-91
2022/01/17 12:20:03;;;;;;;36.15;5.32;;;9.10;99.90;;;;;;5048058;28;20494;-91
2022/01/17 12:22:30;;;;;;;26.65;5.65;;;9.10;99.90;;;;;;5062996;28;20749;-91
2022/01/17 12:24:56;;;;;;;30.08;6.32;;;9.10;99.90;;;;;;5045394;28;20024;-91
2022/01/17 12:27:26;;;;;;;43.15;7.35;;;9.10;99.90;;;;;;5059826;28;20513;-88
2022/01/17 12:30:10;;;;;;;35.47;6.03;;;9.10;99.90;;;;;;5042384;28;20028;-91
2022/01/17 12:32:39;;;;;;;31.42;5.32;;;9.10;99.90;;;;;;5057876;28;20032;-91
2022/01/17 12:35:05;;;;;;;34.90;5.32;;;9.10;99.90;;;;;;5051009;28;20264;-91
2022/01/17 12:37:40;;;;;;;29.45;5.20;;;9.10;99.90;;;;;;5051082;28;20048;-91
2022/01/17 12:40:26;;;;;;;33.53;5.93;;;9.10;99.90;;;;;;5096362;28;20402;-92
2022/01/17 12:43:11;;;;;;;29.60;4.95;;;9.10;99.90;;;;;;5067335;28;20407;-90
2022/01/17 12:45:45;;;;;;;40.17;5.85;;;9.20;99.90;;;;;;5050870;28;20036;-91
2022/01/17 12:48:16;;;;;;;29.63;5.43;;;9.20;99.90;;;;;;5084113;28;20501;-92
2022/01/17 12:50:44;;;;;;;107.32;13.95;;;9.20;99.90;;;;;;5101137;28;20495;-92
2022/01/17 12:53:12;;;;;;;30.70;5.00;;;9.20;99.90;;;;;;5050439;28;20081;-91
2022/01/17 12:55:42;;;;;;;34.60;4.90;;;9.20;99.90;;;;;;5098468;28;20039;-91
2022/01/17 12:58:17;;;;;;;41.60;8.13;;;9.10;99.90;;;;;;5048872;28;20044;-90
2022/01/17 13:00:45;;;;;;;37.28;5.63;;;9.10;99.90;;;;;;5050349;28;20040;-90
2022/01/17 13:03:13;;;;;;;29.45;4.55;;;9.10;99.90;;;;;;5082798;28;20048;-92
2022/01/17 13:05:39;;;;;;;32.53;4.90;;;9.10;99.90;;;;;;5084488;28;20477;-89
2022/01/17 13:08:05;;;;;;;34.67;6.10;;;9.10;99.90;;;;;;5083812;28;20544;-90
2022/01/17 13:10:31;;;;;;;34.92;6.03;;;9.10;99.90;;;;;;5097357;28;20110;-90
2022/01/17 13:12:58;;;;;;;25.33;6.03;;;9.10;99.90;;;;;;5050407;28;20058;-91
2022/01/17 13:15:24;;;;;;;28.88;5.05;;;9.10;99.90;;;;;;5049447;28;20051;-92
2022/01/17 13:17:51;;;;;;;38.95;6.20;;;9.10;99.90;;;;;;5101195;28;20060;-91